sensor_id;sensor_type;location;lat;lon;timestamp;P1;durP1;ratioP1;P2;durP2;ratioP2
46407;SDS011;32110;45.724;21.276;2022-08-14T00:00:44;13.80;;;10.35;;
46407;SDS011;32110;45.724;21.276;2022-08-14T00:03:26;17.13;;;11.20;;
46407;SDS011;32110;45.724;21.276;2022-08-14T00:05:54;13.82;;;10.77;;
46407;SDS011;32110;45.724;21.276;2022-08-14T00:08:21;16.60;;;11.43;;
46407;SDS011;32110;45.724;21.276;2022-08-14T00:10:47;15.63;;;11.52;;
46407;SDS011;32110;45.724;21.276;2022-08-14T00:13:13;16.98;;;11.68;;
46407;SDS011;32110;45.724;21.276;2022-08-14T00:15:42;16.60;;;11.52;;
46407;SDS011;32110;45.724;21.276;2022-08-14T00:18:10;16.73;;;10.87;;
46407;SDS011;32110;45.724;21.276;2022-08-14T00:20:39;14.05;;;10.98;;
46407;SDS011;32110;45.724;21.276;2022-08-14T00:23:05;16.00;;;10.52;;
46407;SDS011;32110;45.724;21.276;2022-08-14T00:25:32;18.90;;;11.10;;
46407;SDS011;32110;45.724;21.276;2022-08-14T00:27:58;14.40;;;10.90;;
46407;SDS011;32110;45.724;21.276;2022-08-14T00:30:24;15.55;;;11.15;;
46407;SDS011;32110;45.724;21.276;2022-08-14T00:32:50;14.38;;;10.63;;
46407;SDS011;32110;45.724;21.276;2022-08-14T00:35:15;14.57;;;11.07;;
46407;SDS011;32110;45.724;21.276;2022-08-14T00:37:42;14.85;;;11.00;;
46407;SDS011;32110;45.724;21.276;2022-08-14T00:40:10;15.80;;;11.75;;
46407;SDS011;32110;45.724;21.276;2022-08-14T00:42:38;15.68;;;12.05;;
46407;SDS011;32110;45.724;21.276;2022-08-14T00:45:04;18.98;;;12.27;;
46407;SDS011;32110;45.724;21.276;2022-08-14T00:47:31;15.48;;;11.48;;
46407;SDS011;32110;45.724;21.276;2022-08-14T00:49:59;14.23;;;11.23;;
46407;SDS011;32110;45.724;21.276;2022-08-14T00:52:26;16.25;;;11.70;;
46407;SDS011;32110;45.724;21.276;2022-08-14T00:54:52;18.75;;;12.02;;
46407;SDS011;32110;45.724;21.276;2022-08-14T00:57:22;17.48;;;11.93;;
46407;SDS011;32110;45.724;21.276;2022-08-14T00:59:49;17.90;;;12.20;;
46407;SDS011;32110;45.724;21.276;2022-08-14T01:02:16;16.30;;;12.02;;
46407;SDS011;32110;45.724;21.276;2022-08-14T01:04:43;15.40;;;11.30;;
46407;SDS011;32110;45.724;21.276;2022-08-14T01:07:11;18.70;;;12.85;;
46407;SDS011;32110;45.724;21.276;2022-08-14T01:09:45;14.10;;;11.57;;
46407;SDS011;32110;45.724;21.276;2022-08-14T01:12:16;15.18;;;11.75;;
46407;SDS011;32110;45.724;21.276;2022-08-14T01:14:41;14.57;;;11.38;;
46407;SDS011;32110;45.724;21.276;2022-08-14T01:17:07;16.30;;;12.48;;
46407;SDS011;32110;45.724;21.276;2022-08-14T01:19:32;17.80;;;11.93;;
46407;SDS011;32110;45.724;21.276;2022-08-14T01:22:17;18.25;;;12.48;;
46407;SDS011;32110;45.724;21.276;2022-08-14T01:24:42;16.15;;;11.98;;
46407;SDS011;32110;45.724;21.276;2022-08-14T01:27:15;16.45;;;12.40;;
46407;SDS011;32110;45.724;21.276;2022-08-14T01:29:43;18.13;;;11.82;;
46407;SDS011;32110;45.724;21.276;2022-08-14T01:32:10;18.10;;;12.45;;
46407;SDS011;32110;45.724;21.276;2022-08-14T01:34:36;13.73;;;11.80;;
46407;SDS011;32110;45.724;21.276;2022-08-14T01:37:01;15.43;;;11.77;;
46407;SDS011;32110;45.724;21.276;2022-08-14T01:39:27;14.50;;;11.65;;
46407;SDS011;32110;45.724;21.276;2022-08-14T01:41:52;15.13;;;11.75;;
46407;SDS011;32110;45.724;21.276;2022-08-14T01:44:24;13.55;;;11.43;;
46407;SDS011;32110;45.724;21.276;2022-08-14T01:49:20;14.40;;;11.35;;
46407;SDS011;32110;45.724;21.276;2022-08-14T01:51:47;15.32;;;12.18;;
46407;SDS011;32110;45.724;21.276;2022-08-14T01:54:18;16.92;;;12.80;;
46407;SDS011;32110;45.724;21.276;2022-08-14T01:56:46;18.17;;;12.52;;
46407;SDS011;32110;45.724;21.276;2022-08-14T01:59:19;17.15;;;12.70;;
46407;SDS011;32110;45.724;21.276;2022-08-14T02:01:48;15.43;;;12.30;;
46407;SDS011;32110;45.724;21.276;2022-08-14T02:04:16;16.58;;;11.48;;
46407;SDS011;32110;45.724;21.276;2022-08-14T02:06:43;16.45;;;12.77;;
46407;SDS011;32110;45.724;21.276;2022-08-14T02:09:09;17.20;;;13.00;;
46407;SDS011;32110;45.724;21.276;2022-08-14T02:11:34;15.95;;;12.73;;
46407;SDS011;32110;45.724;21.276;2022-08-14T02:14:02;18.60;;;13.02;;
46407;SDS011;32110;45.724;21.276;2022-08-14T02:16:32;17.63;;;12.73;;
46407;SDS011;32110;45.724;21.276;2022-08-14T02:19:08;18.80;;;12.43;;
46407;SDS011;32110;45.724;21.276;2022-08-14T02:21:35;18.52;;;12.43;;
46407;SDS011;32110;45.724;21.276;2022-08-14T02:24:03;18.50;;;12.02;;
46407;SDS011;32110;45.724;21.276;2022-08-14T02:26:30;21.90;;;13.32;;
46407;SDS011;32110;45.724;21.276;2022-08-14T02:28:59;17.17;;;13.18;;
46407;SDS011;32110;45.724;21.276;2022-08-14T02:31:27;16.65;;;13.20;;
46407;SDS011;32110;45.724;21.276;2022-08-14T02:33:56;16.40;;;13.10;;
46407;SDS011;32110;45.724;21.276;2022-08-14T02:36:23;17.92;;;13.70;;
46407;SDS011;32110;45.724;21.276;2022-08-14T02:38:48;18.42;;;13.60;;
46407;SDS011;32110;45.724;21.276;2022-08-14T02:41:14;16.63;;;13.13;;
46407;SDS011;32110;45.724;21.276;2022-08-14T02:43:42;18.15;;;13.15;;
46407;SDS011;32110;45.724;21.276;2022-08-14T02:46:08;16.08;;;12.88;;
46407;SDS011;32110;45.724;21.276;2022-08-14T02:48:35;18.38;;;13.18;;
46407;SDS011;32110;45.724;21.276;2022-08-14T02:51:06;17.17;;;13.27;;
46407;SDS011;32110;45.724;21.276;2022-08-14T02:53:35;22.98;;;14.23;;
46407;SDS011;32110;45.724;21.276;2022-08-14T02:56:03;17.08;;;13.68;;
46407;SDS011;32110;45.724;21.276;2022-08-14T02:58:29;18.83;;;13.63;;
46407;SDS011;32110;45.724;21.276;2022-08-14T03:00:55;20.83;;;13.25;;
46407;SDS011;32110;45.724;21.276;2022-08-14T03:03:20;21.23;;;13.35;;
46407;SDS011;32110;45.724;21.276;2022-08-14T03:05:49;16.77;;;12.73;;
46407;SDS011;32110;45.724;21.276;2022-08-14T03:08:15;18.98;;;13.43;;
46407;SDS011;32110;45.724;21.276;2022-08-14T03:10:41;19.67;;;12.75;;
46407;SDS011;32110;45.724;21.276;2022-08-14T03:13:07;15.88;;;12.85;;
46407;SDS011;32110;45.724;21.276;2022-08-14T03:15:34;18.60;;;13.32;;
46407;SDS011;32110;45.724;21.276;2022-08-14T03:18:17;19.13;;;13.55;;
46407;SDS011;32110;45.724;21.276;2022-08-14T03:20:47;16.50;;;13.63;;
46407;SDS011;32110;45.724;21.276;2022-08-14T03:23:14;18.98;;;13.88;;
46407;SDS011;32110;45.724;21.276;2022-08-14T03:25:39;20.65;;;13.48;;
46407;SDS011;32110;45.724;21.276;2022-08-14T03:28:05;19.58;;;14.65;;
46407;SDS011;32110;45.724;21.276;2022-08-14T03:30:32;18.95;;;14.88;;
46407;SDS011;32110;45.724;21.276;2022-08-14T03:32:58;21.17;;;14.88;;
46407;SDS011;32110;45.724;21.276;2022-08-14T03:35:24;21.15;;;14.45;;
46407;SDS011;32110;45.724;21.276;2022-08-14T03:37:49;18.92;;;13.80;;
46407;SDS011;32110;45.724;21.276;2022-08-14T03:40:17;16.50;;;14.40;;
46407;SDS011;32110;45.724;21.276;2022-08-14T03:42:44;18.80;;;14.32;;
46407;SDS011;32110;45.724;21.276;2022-08-14T03:45:09;22.90;;;13.75;;
46407;SDS011;32110;45.724;21.276;2022-08-14T03:47:35;17.35;;;13.95;;
46407;SDS011;32110;45.724;21.276;2022-08-14T03:50:07;20.90;;;14.90;;
46407;SDS011;32110;45.724;21.276;2022-08-14T03:52:37;18.40;;;14.63;;
46407;SDS011;32110;45.724;21.276;2022-08-14T03:55:04;17.92;;;14.23;;
46407;SDS011;32110;45.724;21.276;2022-08-14T03:57:31;17.80;;;13.65;;
46407;SDS011;32110;45.724;21.276;2022-08-14T03:59:57;17.42;;;14.07;;
46407;SDS011;32110;45.724;21.276;2022-08-14T04:02:27;18.92;;;14.25;;
46407;SDS011;32110;45.724;21.276;2022-08-14T04:04:52;19.92;;;14.38;;
46407;SDS011;32110;45.724;21.276;2022-08-14T04:07:17;20.38;;;15.32;;
46407;SDS011;32110;45.724;21.276;2022-08-14T04:09:43;20.13;;;15.87;;
46407;SDS011;32110;45.724;21.276;2022-08-14T04:12:08;21.50;;;15.27;;
46407;SDS011;32110;45.724;21.276;2022-08-14T04:14:34;18.15;;;14.55;;
46407;SDS011;32110;45.724;21.276;2022-08-14T04:17:00;22.92;;;15.13;;
46407;SDS011;32110;45.724;21.276;2022-08-14T04:19:25;19.70;;;14.97;;
46407;SDS011;32110;45.724;21.276;2022-08-14T04:21:50;21.38;;;15.93;;
46407;SDS011;32110;45.724;21.276;2022-08-14T04:24:16;20.27;;;15.32;;
46407;SDS011;32110;45.724;21.276;2022-08-14T04:26:41;20.30;;;14.55;;
46407;SDS011;32110;45.724;21.276;2022-08-14T04:29:08;18.10;;;15.13;;
46407;SDS011;32110;45.724;21.276;2022-08-14T04:31:37;21.77;;;15.85;;
46407;SDS011;32110;45.724;21.276;2022-08-14T04:34:03;20.38;;;15.40;;
46407;SDS011;32110;45.724;21.276;2022-08-14T04:36:30;18.15;;;15.75;;
46407;SDS011;32110;45.724;21.276;2022-08-14T04:38:56;19.95;;;15.73;;
46407;SDS011;32110;45.724;21.276;2022-08-14T04:41:40;22.13;;;15.43;;
46407;SDS011;32110;45.724;21.276;2022-08-14T04:44:25;21.65;;;16.00;;
46407;SDS011;32110;45.724;21.276;2022-08-14T04:46:50;23.55;;;15.95;;
46407;SDS011;32110;45.724;21.276;2022-08-14T04:49:34;21.60;;;16.33;;
46407;SDS011;32110;45.724;21.276;2022-08-14T04:52:00;19.15;;;15.95;;
46407;SDS011;32110;45.724;21.276;2022-08-14T04:54:28;22.15;;;16.75;;
46407;SDS011;32110;45.724;21.276;2022-08-14T04:56:54;24.27;;;16.80;;
46407;SDS011;32110;45.724;21.276;2022-08-14T04:59:20;21.92;;;16.40;;
46407;SDS011;32110;45.724;21.276;2022-08-14T05:01:46;21.52;;;16.48;;
46407;SDS011;32110;45.724;21.276;2022-08-14T05:04:12;23.13;;;16.30;;
46407;SDS011;32110;45.724;21.276;2022-08-14T05:06:37;20.83;;;16.75;;
46407;SDS011;32110;45.724;21.276;2022-08-14T05:09:03;20.98;;;16.25;;
46407;SDS011;32110;45.724;21.276;2022-08-14T05:11:30;23.60;;;17.63;;
46407;SDS011;32110;45.724;21.276;2022-08-14T05:13:58;24.02;;;17.15;;
46407;SDS011;32110;45.724;21.276;2022-08-14T05:16:25;22.75;;;16.95;;
46407;SDS011;32110;45.724;21.276;2022-08-14T05:18:53;23.73;;;17.60;;
46407;SDS011;32110;45.724;21.276;2022-08-14T05:21:18;26.95;;;18.58;;
46407;SDS011;32110;45.724;21.276;2022-08-14T05:23:44;23.70;;;18.30;;
46407;SDS011;32110;45.724;21.276;2022-08-14T05:26:09;24.13;;;18.30;;
46407;SDS011;32110;45.724;21.276;2022-08-14T05:28:41;22.08;;;18.23;;
46407;SDS011;32110;45.724;21.276;2022-08-14T05:31:09;24.30;;;18.67;;
46407;SDS011;32110;45.724;21.276;2022-08-14T05:33:35;21.70;;;17.90;;
46407;SDS011;32110;45.724;21.276;2022-08-14T05:36:02;24.20;;;18.38;;
46407;SDS011;32110;45.724;21.276;2022-08-14T05:38:34;22.48;;;17.45;;
46407;SDS011;32110;45.724;21.276;2022-08-14T05:41:06;25.63;;;17.17;;
46407;SDS011;32110;45.724;21.276;2022-08-14T05:43:42;22.38;;;17.40;;
46407;SDS011;32110;45.724;21.276;2022-08-14T05:46:09;22.38;;;17.42;;
46407;SDS011;32110;45.724;21.276;2022-08-14T05:48:39;23.27;;;18.40;;
46407;SDS011;32110;45.724;21.276;2022-08-14T05:51:04;23.60;;;18.35;;
46407;SDS011;32110;45.724;21.276;2022-08-14T05:53:30;22.63;;;17.70;;
46407;SDS011;32110;45.724;21.276;2022-08-14T05:55:56;24.05;;;17.33;;
46407;SDS011;32110;45.724;21.276;2022-08-14T05:58:23;24.23;;;17.50;;
46407;SDS011;32110;45.724;21.276;2022-08-14T06:00:49;22.38;;;17.13;;
46407;SDS011;32110;45.724;21.276;2022-08-14T06:03:16;24.08;;;18.38;;
46407;SDS011;32110;45.724;21.276;2022-08-14T06:05:43;23.48;;;17.63;;
46407;SDS011;32110;45.724;21.276;2022-08-14T06:08:21;22.58;;;17.77;;
46407;SDS011;32110;45.724;21.276;2022-08-14T06:10:51;21.60;;;16.85;;
46407;SDS011;32110;45.724;21.276;2022-08-14T06:13:17;21.80;;;17.90;;
46407;SDS011;32110;45.724;21.276;2022-08-14T06:15:44;25.27;;;18.27;;
46407;SDS011;32110;45.724;21.276;2022-08-14T06:18:10;22.48;;;17.88;;
46407;SDS011;32110;45.724;21.276;2022-08-14T06:20:36;21.65;;;17.85;;
46407;SDS011;32110;45.724;21.276;2022-08-14T06:23:03;24.52;;;18.48;;
46407;SDS011;32110;45.724;21.276;2022-08-14T06:25:28;23.02;;;18.23;;
46407;SDS011;32110;45.724;21.276;2022-08-14T06:27:54;20.10;;;17.08;;
46407;SDS011;32110;45.724;21.276;2022-08-14T06:30:24;20.13;;;16.48;;
46407;SDS011;32110;45.724;21.276;2022-08-14T06:32:52;21.80;;;16.33;;
46407;SDS011;32110;45.724;21.276;2022-08-14T06:35:18;20.70;;;17.23;;
46407;SDS011;32110;45.724;21.276;2022-08-14T06:40:23;23.20;;;18.33;;
46407;SDS011;32110;45.724;21.276;2022-08-14T06:42:49;21.60;;;16.88;;
46407;SDS011;32110;45.724;21.276;2022-08-14T06:45:15;21.08;;;17.05;;
46407;SDS011;32110;45.724;21.276;2022-08-14T06:47:41;20.40;;;17.13;;
46407;SDS011;32110;45.724;21.276;2022-08-14T06:50:09;23.48;;;17.38;;
46407;SDS011;32110;45.724;21.276;2022-08-14T06:52:36;20.70;;;16.70;;
46407;SDS011;32110;45.724;21.276;2022-08-14T06:55:04;23.58;;;18.20;;
46407;SDS011;32110;45.724;21.276;2022-08-14T06:57:33;20.30;;;17.20;;
46407;SDS011;32110;45.724;21.276;2022-08-14T07:00:02;20.60;;;17.63;;
46407;SDS011;32110;45.724;21.276;2022-08-14T07:02:28;21.90;;;17.10;;
46407;SDS011;32110;45.724;21.276;2022-08-14T07:05:12;22.20;;;18.08;;
46407;SDS011;32110;45.724;21.276;2022-08-14T07:07:56;25.40;;;19.90;;
46407;SDS011;32110;45.724;21.276;2022-08-14T07:10:22;24.38;;;19.27;;
46407;SDS011;32110;45.724;21.276;2022-08-14T07:12:47;24.00;;;18.35;;
46407;SDS011;32110;45.724;21.276;2022-08-14T07:15:13;22.30;;;18.92;;
46407;SDS011;32110;45.724;21.276;2022-08-14T07:17:43;25.58;;;18.90;;
46407;SDS011;32110;45.724;21.276;2022-08-14T07:20:09;22.45;;;17.63;;
46407;SDS011;32110;45.724;21.276;2022-08-14T07:22:35;25.50;;;17.95;;
46407;SDS011;32110;45.724;21.276;2022-08-14T07:25:01;22.95;;;19.30;;
46407;SDS011;32110;45.724;21.276;2022-08-14T07:27:26;20.70;;;17.95;;
46407;SDS011;32110;45.724;21.276;2022-08-14T07:29:51;21.83;;;17.92;;
46407;SDS011;32110;45.724;21.276;2022-08-14T07:32:17;26.08;;;18.33;;
46407;SDS011;32110;45.724;21.276;2022-08-14T07:34:42;22.88;;;17.88;;
46407;SDS011;32110;45.724;21.276;2022-08-14T07:37:08;22.65;;;18.00;;
46407;SDS011;32110;45.724;21.276;2022-08-14T07:39:33;22.80;;;18.90;;
46407;SDS011;32110;45.724;21.276;2022-08-14T07:41:58;24.37;;;18.10;;
46407;SDS011;32110;45.724;21.276;2022-08-14T07:44:24;22.95;;;19.02;;
46407;SDS011;32110;45.724;21.276;2022-08-14T07:46:49;22.65;;;18.63;;
46407;SDS011;32110;45.724;21.276;2022-08-14T07:49:15;22.80;;;18.33;;
46407;SDS011;32110;45.724;21.276;2022-08-14T07:51:40;23.88;;;17.98;;
46407;SDS011;32110;45.724;21.276;2022-08-14T07:54:06;21.65;;;16.30;;
46407;SDS011;32110;45.724;21.276;2022-08-14T07:56:32;19.88;;;17.38;;
46407;SDS011;32110;45.724;21.276;2022-08-14T07:58:57;18.73;;;15.98;;
46407;SDS011;32110;45.724;21.276;2022-08-14T08:01:23;20.27;;;15.80;;
46407;SDS011;32110;45.724;21.276;2022-08-14T08:03:50;22.17;;;17.90;;
46407;SDS011;32110;45.724;21.276;2022-08-14T08:06:16;22.60;;;16.65;;
46407;SDS011;32110;45.724;21.276;2022-08-14T08:08:41;21.85;;;17.13;;
46407;SDS011;32110;45.724;21.276;2022-08-14T08:11:08;19.02;;;15.52;;
46407;SDS011;32110;45.724;21.276;2022-08-14T08:13:35;19.77;;;15.00;;
46407;SDS011;32110;45.724;21.276;2022-08-14T08:16:05;18.90;;;16.27;;
46407;SDS011;32110;45.724;21.276;2022-08-14T08:18:32;18.65;;;15.40;;
46407;SDS011;32110;45.724;21.276;2022-08-14T08:20:57;18.45;;;15.75;;
46407;SDS011;32110;45.724;21.276;2022-08-14T08:23:23;18.27;;;15.85;;
46407;SDS011;32110;45.724;21.276;2022-08-14T08:25:50;21.30;;;15.90;;
46407;SDS011;32110;45.724;21.276;2022-08-14T08:28:24;18.98;;;14.65;;
46407;SDS011;32110;45.724;21.276;2022-08-14T08:33:19;13.82;;;12.05;;
46407;SDS011;32110;45.724;21.276;2022-08-14T08:35:46;17.23;;;12.43;;
46407;SDS011;32110;45.724;21.276;2022-08-14T08:38:22;13.90;;;10.90;;
46407;SDS011;32110;45.724;21.276;2022-08-14T08:40:51;12.30;;;9.57;;
46407;SDS011;32110;45.724;21.276;2022-08-14T08:43:29;11.75;;;9.80;;
46407;SDS011;32110;45.724;21.276;2022-08-14T08:46:18;14.43;;;10.37;;
46407;SDS011;32110;45.724;21.276;2022-08-14T08:48:48;11.60;;;9.63;;
46407;SDS011;32110;45.724;21.276;2022-08-14T08:51:25;11.52;;;9.85;;
46407;SDS011;32110;45.724;21.276;2022-08-14T08:56:59;13.60;;;10.07;;
46407;SDS011;32110;45.724;21.276;2022-08-14T08:59:24;12.18;;;10.75;;
46407;SDS011;32110;45.724;21.276;2022-08-14T09:01:54;12.05;;;10.23;;
46407;SDS011;32110;45.724;21.276;2022-08-14T09:04:23;12.55;;;11.25;;
46407;SDS011;32110;45.724;21.276;2022-08-14T09:06:54;15.80;;;10.02;;
46407;SDS011;32110;45.724;21.276;2022-08-14T09:11:54;12.30;;;10.07;;
46407;SDS011;32110;45.724;21.276;2022-08-14T09:14:22;11.60;;;9.68;;
46407;SDS011;32110;45.724;21.276;2022-08-14T09:16:48;12.35;;;10.95;;
46407;SDS011;32110;45.724;21.276;2022-08-14T09:19:15;14.40;;;10.38;;
46407;SDS011;32110;45.724;21.276;2022-08-14T09:21:41;11.38;;;9.70;;
46407;SDS011;32110;45.724;21.276;2022-08-14T09:24:07;12.20;;;8.90;;
46407;SDS011;32110;45.724;21.276;2022-08-14T09:26:34;14.25;;;9.85;;
46407;SDS011;32110;45.724;21.276;2022-08-14T09:29:00;11.90;;;9.38;;
46407;SDS011;32110;45.724;21.276;2022-08-14T09:31:27;11.52;;;9.02;;
46407;SDS011;32110;45.724;21.276;2022-08-14T09:42:19;10.13;;;8.02;;
46407;SDS011;32110;45.724;21.276;2022-08-14T09:47:52;10.13;;;7.93;;
46407;SDS011;32110;45.724;21.276;2022-08-14T09:53:09;8.98;;;6.78;;
46407;SDS011;32110;45.724;21.276;2022-08-14T09:55:35;10.77;;;6.57;;
46407;SDS011;32110;45.724;21.276;2022-08-14T09:58:18;11.77;;;6.32;;
46407;SDS011;32110;45.724;21.276;2022-08-14T10:00:45;8.30;;;6.18;;
46407;SDS011;32110;45.724;21.276;2022-08-14T10:03:30;8.77;;;6.35;;
46407;SDS011;32110;45.724;21.276;2022-08-14T10:08:41;9.00;;;6.25;;
46407;SDS011;32110;45.724;21.276;2022-08-14T10:13:41;7.32;;;5.63;;
46407;SDS011;32110;45.724;21.276;2022-08-14T10:16:07;9.68;;;6.28;;
46407;SDS011;32110;45.724;21.276;2022-08-14T10:18:33;7.82;;;6.18;;
46407;SDS011;32110;45.724;21.276;2022-08-14T10:20:59;8.40;;;6.10;;
46407;SDS011;32110;45.724;21.276;2022-08-14T10:23:27;7.45;;;5.80;;
46407;SDS011;32110;45.724;21.276;2022-08-14T10:26:07;8.50;;;6.20;;
46407;SDS011;32110;45.724;21.276;2022-08-14T10:28:40;10.27;;;6.90;;
46407;SDS011;32110;45.724;21.276;2022-08-14T10:31:21;9.93;;;6.38;;
46407;SDS011;32110;45.724;21.276;2022-08-14T10:36:35;9.43;;;5.18;;
46407;SDS011;32110;45.724;21.276;2022-08-14T10:39:04;8.35;;;6.20;;
46407;SDS011;32110;45.724;21.276;2022-08-14T10:41:38;9.45;;;6.53;;
46407;SDS011;32110;45.724;21.276;2022-08-14T10:44:06;7.05;;;6.05;;
46407;SDS011;32110;45.724;21.276;2022-08-14T10:46:54;6.07;;;5.40;;
46407;SDS011;32110;45.724;21.276;2022-08-14T10:49:27;9.40;;;6.20;;
46407;SDS011;32110;45.724;21.276;2022-08-14T10:54:36;7.35;;;6.20;;
46407;SDS011;32110;45.724;21.276;2022-08-14T10:59:48;8.75;;;6.15;;
46407;SDS011;32110;45.724;21.276;2022-08-14T11:10:20;7.57;;;5.55;;
46407;SDS011;32110;45.724;21.276;2022-08-14T11:12:50;7.32;;;5.72;;
46407;SDS011;32110;45.724;21.276;2022-08-14T11:15:23;7.50;;;5.40;;
46407;SDS011;32110;45.724;21.276;2022-08-14T11:17:52;8.25;;;6.40;;
46407;SDS011;32110;45.724;21.276;2022-08-14T11:20:19;8.02;;;6.10;;
46407;SDS011;32110;45.724;21.276;2022-08-14T11:22:48;6.70;;;5.60;;
46407;SDS011;32110;45.724;21.276;2022-08-14T11:25:16;6.43;;;5.80;;
46407;SDS011;32110;45.724;21.276;2022-08-14T11:27:44;7.07;;;5.85;;
46407;SDS011;32110;45.724;21.276;2022-08-14T11:30:12;6.50;;;5.40;;
46407;SDS011;32110;45.724;21.276;2022-08-14T11:32:40;7.32;;;5.70;;
46407;SDS011;32110;45.724;21.276;2022-08-14T11:35:12;7.23;;;5.90;;
46407;SDS011;32110;45.724;21.276;2022-08-14T11:37:59;6.40;;;5.55;;
46407;SDS011;32110;45.724;21.276;2022-08-14T11:40:28;6.28;;;5.65;;
46407;SDS011;32110;45.724;21.276;2022-08-14T11:42:58;6.53;;;5.85;;
46407;SDS011;32110;45.724;21.276;2022-08-14T11:45:26;5.68;;;5.18;;
46407;SDS011;32110;45.724;21.276;2022-08-14T11:47:57;7.43;;;5.80;;
46407;SDS011;32110;45.724;21.276;2022-08-14T11:50:24;7.32;;;6.22;;
46407;SDS011;32110;45.724;21.276;2022-08-14T11:52:52;8.60;;;5.65;;
46407;SDS011;32110;45.724;21.276;2022-08-14T11:55:21;6.57;;;5.35;;
46407;SDS011;32110;45.724;21.276;2022-08-14T11:57:57;7.47;;;5.55;;
46407;SDS011;32110;45.724;21.276;2022-08-14T12:00:28;8.68;;;5.85;;
46407;SDS011;32110;45.724;21.276;2022-08-14T12:02:56;7.00;;;5.68;;
46407;SDS011;32110;45.724;21.276;2022-08-14T12:06:02;7.40;;;5.63;;
46407;SDS011;32110;45.724;21.276;2022-08-14T12:08:15;6.57;;;5.95;;
46407;SDS011;32110;45.724;21.276;2022-08-14T12:10:42;10.30;;;5.50;;
46407;SDS011;32110;45.724;21.276;2022-08-14T12:13:16;7.93;;;5.85;;
46407;SDS011;32110;45.724;21.276;2022-08-14T12:15:44;8.43;;;5.90;;
46407;SDS011;32110;45.724;21.276;2022-08-14T12:18:32;7.72;;;5.95;;
46407;SDS011;32110;45.724;21.276;2022-08-14T12:21:19;8.65;;;5.88;;
46407;SDS011;32110;45.724;21.276;2022-08-14T12:23:47;8.70;;;6.10;;
46407;SDS011;32110;45.724;21.276;2022-08-14T12:26:26;8.88;;;6.57;;
46407;SDS011;32110;45.724;21.276;2022-08-14T12:29:08;7.88;;;6.15;;
46407;SDS011;32110;45.724;21.276;2022-08-14T12:31:34;10.88;;;5.88;;
46407;SDS011;32110;45.724;21.276;2022-08-14T12:34:01;7.78;;;5.20;;
46407;SDS011;32110;45.724;21.276;2022-08-14T12:36:28;7.32;;;5.80;;
46407;SDS011;32110;45.724;21.276;2022-08-14T12:38:55;6.75;;;6.05;;
46407;SDS011;32110;45.724;21.276;2022-08-14T12:41:26;11.07;;;7.00;;
46407;SDS011;32110;45.724;21.276;2022-08-14T12:43:58;11.70;;;6.15;;
46407;SDS011;32110;45.724;21.276;2022-08-14T12:49:07;7.25;;;6.53;;
46407;SDS011;32110;45.724;21.276;2022-08-14T12:51:34;10.43;;;6.40;;
46407;SDS011;32110;45.724;21.276;2022-08-14T12:54:13;10.43;;;6.30;;
46407;SDS011;32110;45.724;21.276;2022-08-14T12:56:40;8.15;;;5.88;;
46407;SDS011;32110;45.724;21.276;2022-08-14T12:59:06;7.35;;;6.50;;
46407;SDS011;32110;45.724;21.276;2022-08-14T13:01:32;7.63;;;6.25;;
46407;SDS011;32110;45.724;21.276;2022-08-14T13:06:36;9.05;;;6.10;;
46407;SDS011;32110;45.724;21.276;2022-08-14T13:09:03;8.00;;;6.05;;
46407;SDS011;32110;45.724;21.276;2022-08-14T13:14:10;5.13;;;4.43;;
46407;SDS011;32110;45.724;21.276;2022-08-14T13:16:40;12.50;;;6.38;;
46407;SDS011;32110;45.724;21.276;2022-08-14T13:19:07;6.90;;;6.20;;
46407;SDS011;32110;45.724;21.276;2022-08-14T13:21:36;7.97;;;6.28;;
46407;SDS011;32110;45.724;21.276;2022-08-14T13:24:03;8.43;;;6.25;;
46407;SDS011;32110;45.724;21.276;2022-08-14T13:26:29;8.48;;;6.38;;
46407;SDS011;32110;45.724;21.276;2022-08-14T13:28:57;9.38;;;6.13;;
46407;SDS011;32110;45.724;21.276;2022-08-14T13:31:26;9.45;;;5.63;;
46407;SDS011;32110;45.724;21.276;2022-08-14T13:33:56;6.97;;;6.10;;
46407;SDS011;32110;45.724;21.276;2022-08-14T13:36:25;7.15;;;5.72;;
46407;SDS011;32110;45.724;21.276;2022-08-14T13:38:51;8.07;;;5.75;;
46407;SDS011;32110;45.724;21.276;2022-08-14T13:41:18;7.40;;;5.90;;
46407;SDS011;32110;45.724;21.276;2022-08-14T13:43:48;6.40;;;5.63;;
46407;SDS011;32110;45.724;21.276;2022-08-14T13:46:15;6.18;;;5.35;;
46407;SDS011;32110;45.724;21.276;2022-08-14T13:48:44;7.38;;;6.10;;
46407;SDS011;32110;45.724;21.276;2022-08-14T13:51:10;5.88;;;5.28;;
46407;SDS011;32110;45.724;21.276;2022-08-14T13:53:40;6.95;;;5.90;;
46407;SDS011;32110;45.724;21.276;2022-08-14T13:56:10;6.70;;;5.60;;
46407;SDS011;32110;45.724;21.276;2022-08-14T13:58:37;6.95;;;5.65;;
46407;SDS011;32110;45.724;21.276;2022-08-14T14:01:03;7.68;;;5.55;;
46407;SDS011;32110;45.724;21.276;2022-08-14T14:03:32;8.07;;;5.55;;
46407;SDS011;32110;45.724;21.276;2022-08-14T14:05:59;7.30;;;5.53;;
46407;SDS011;32110;45.724;21.276;2022-08-14T14:08:26;6.43;;;5.22;;
46407;SDS011;32110;45.724;21.276;2022-08-14T14:10:53;5.80;;;5.22;;
46407;SDS011;32110;45.724;21.276;2022-08-14T14:13:20;7.00;;;5.53;;
46407;SDS011;32110;45.724;21.276;2022-08-14T14:15:47;8.77;;;4.90;;
46407;SDS011;32110;45.724;21.276;2022-08-14T14:18:13;5.60;;;4.97;;
46407;SDS011;32110;45.724;21.276;2022-08-14T14:20:42;5.47;;;4.95;;
46407;SDS011;32110;45.724;21.276;2022-08-14T14:23:08;6.00;;;4.90;;
46407;SDS011;32110;45.724;21.276;2022-08-14T14:25:41;7.07;;;4.50;;
46407;SDS011;32110;45.724;21.276;2022-08-14T14:28:11;6.28;;;5.55;;
46407;SDS011;32110;45.724;21.276;2022-08-14T14:30:42;6.70;;;5.60;;
46407;SDS011;32110;45.724;21.276;2022-08-14T14:33:10;6.55;;;5.13;;
46407;SDS011;32110;45.724;21.276;2022-08-14T14:35:37;6.07;;;4.72;;
46407;SDS011;32110;45.724;21.276;2022-08-14T14:38:07;4.78;;;4.28;;
46407;SDS011;32110;45.724;21.276;2022-08-14T14:40:37;6.53;;;4.70;;
46407;SDS011;32110;45.724;21.276;2022-08-14T14:43:04;5.60;;;4.68;;
46407;SDS011;32110;45.724;21.276;2022-08-14T14:45:34;5.63;;;4.97;;
46407;SDS011;32110;45.724;21.276;2022-08-14T14:48:03;6.03;;;5.35;;
46407;SDS011;32110;45.724;21.276;2022-08-14T14:50:33;7.20;;;4.97;;
46407;SDS011;32110;45.724;21.276;2022-08-14T14:53:00;5.53;;;5.03;;
46407;SDS011;32110;45.724;21.276;2022-08-14T14:55:26;5.25;;;4.60;;
46407;SDS011;32110;45.724;21.276;2022-08-14T14:57:52;5.93;;;4.70;;
46407;SDS011;32110;45.724;21.276;2022-08-14T15:00:20;7.88;;;5.22;;
46407;SDS011;32110;45.724;21.276;2022-08-14T15:02:49;6.32;;;4.82;;
46407;SDS011;32110;45.724;21.276;2022-08-14T15:05:16;6.38;;;4.95;;
46407;SDS011;32110;45.724;21.276;2022-08-14T15:07:43;8.40;;;5.03;;
46407;SDS011;32110;45.724;21.276;2022-08-14T15:10:10;6.13;;;5.22;;
46407;SDS011;32110;45.724;21.276;2022-08-14T15:12:38;5.60;;;5.10;;
46407;SDS011;32110;45.724;21.276;2022-08-14T15:15:04;7.70;;;5.13;;
46407;SDS011;32110;45.724;21.276;2022-08-14T15:17:30;8.52;;;5.30;;
46407;SDS011;32110;45.724;21.276;2022-08-14T15:19:59;9.98;;;5.13;;
46407;SDS011;32110;45.724;21.276;2022-08-14T15:22:27;6.57;;;4.90;;